Grandeur Of The Seas — C6SE3 — position and weather

sailwx.info

Track history (hours):
 
Tides and Currents Weather Stations Pressure Air Temp Water Temp Dewpoint Dewpoint Depression Visibility Wind Speed Wind Dir Waves Ship Positions

Grandeur Of The Seas

Operator: Royal Caribbean Cruises Ltd

Last reported at 2016-Aug-27 01:31 UTC. Time now 2016-Aug-27 06:27 UTC.
Position N 37°02' W 076°03'.

Type: Passenger vessel. MMSI: 311315000.

Date/timePositionNaut miles runAvg speedWind from/ knotsBaromVisibWave heightAir tempDewpointWater temp
2016-Aug-27 01:31N 37°02' W 076°03'  
2016-Aug-19 06:05N 36°51' W 075°50'917.0
2016-Aug-19 05:33N 36°57' W 075°59'6415.9
2016-Aug-19 01:32N 37°60' W 076°12'5518.4
2016-Aug-18 22:32N 38°54' W 076°24'1414.3
2016-Aug-18 21:33N 39°08' W 076°24'1110.4
2016-Aug-18 20:30N 39°15' W 076°35'1 0.8
2016-Aug-18 19:20N 39°16' W 076°36'0 0.0
2016-Aug-18 11:18N 39°16' W 076°36'1 0.7
2016-Aug-18 10:32N 39°15' W 076°35'8 8.0
2016-Aug-18 09:33N 39°11' W 076°27'1413.7
2016-Aug-18 08:34N 38°58' W 076°24'2117.9
2016-Aug-18 07:23N 38°37' W 076°26'9719.9
2016-Aug-18 02:31N 37°02' W 076°03'  
Track history (hours):
 
Tides and Currents Weather Stations Pressure Air Temp Water Temp Dewpoint Dewpoint Depression Visibility Wind Speed Wind Dir Waves Ship Positions

Grandeur Of The Seas

Operator: Royal Caribbean Cruises Ltd

Last reported at 2016-Aug-27 01:31 UTC. Time now 2016-Aug-27 06:27 UTC.
Position N 37°02' W 076°03'.

Type: Passenger vessel. MMSI: 311315000.

Date/timePositionNaut miles runAvg speedWind from/ knotsBaromVisibWave heightAir tempDewpointWater temp
2016-Aug-27 01:31N 37°02' W 076°03'  
2016-Aug-19 06:05N 36°51' W 075°50'917.0
2016-Aug-19 05:33N 36°57' W 075°59'6415.9
2016-Aug-19 01:32N 37°60' W 076°12'5518.4
2016-Aug-18 22:32N 38°54' W 076°24'1414.3
2016-Aug-18 21:33N 39°08' W 076°24'1110.4
2016-Aug-18 20:30N 39°15' W 076°35'1 0.8
2016-Aug-18 19:20N 39°16' W 076°36'0 0.0
2016-Aug-18 11:18N 39°16' W 076°36'1 0.7
2016-Aug-18 10:32N 39°15' W 076°35'8 8.0
2016-Aug-18 09:33N 39°11' W 076°27'1413.7
2016-Aug-18 08:34N 38°58' W 076°24'2117.9
2016-Aug-18 07:23N 38°37' W 076°26'9719.9
2016-Aug-18 02:31N 37°02' W 076°03'  

Dump ship's entire track history